sensor_id;sensor_type;location;lat;lon;timestamp;P1;durP1;ratioP1;P2;durP2;ratioP2
74900;SDS011;63461;51.416;6.758;2023-12-22T00:02:08;8.00;;;1.00;;
74900;SDS011;63461;51.416;6.758;2023-12-22T00:04:34;8.17;;;1.27;;
74900;SDS011;63461;51.416;6.758;2023-12-22T00:06:59;3.63;;;0.70;;
74900;SDS011;63461;51.416;6.758;2023-12-22T00:09:25;7.00;;;1.27;;
74900;SDS011;63461;51.416;6.758;2023-12-22T00:11:51;7.50;;;1.37;;
74900;SDS011;63461;51.416;6.758;2023-12-22T00:14:17;8.80;;;1.40;;
74900;SDS011;63461;51.416;6.758;2023-12-22T00:16:42;10.47;;;1.90;;
74900;SDS011;63461;51.416;6.758;2023-12-22T00:19:08;8.83;;;1.43;;
74900;SDS011;63461;51.416;6.758;2023-12-22T00:21:34;11.27;;;1.03;;
74900;SDS011;63461;51.416;6.758;2023-12-22T00:24:00;4.87;;;1.10;;
74900;SDS011;63461;51.416;6.758;2023-12-22T00:26:26;7.13;;;1.10;;
74900;SDS011;63461;51.416;6.758;2023-12-22T00:28:51;8.27;;;1.37;;
74900;SDS011;63461;51.416;6.758;2023-12-22T00:31:17;9.40;;;1.43;;
74900;SDS011;63461;51.416;6.758;2023-12-22T00:33:43;9.07;;;1.53;;
74900;SDS011;63461;51.416;6.758;2023-12-22T00:36:09;8.30;;;1.10;;
74900;SDS011;63461;51.416;6.758;2023-12-22T00:38:36;7.17;;;1.07;;
74900;SDS011;63461;51.416;6.758;2023-12-22T00:41:01;8.80;;;1.43;;
74900;SDS011;63461;51.416;6.758;2023-12-22T00:43:27;5.13;;;1.17;;
74900;SDS011;63461;51.416;6.758;2023-12-22T00:45:53;5.70;;;1.53;;
74900;SDS011;63461;51.416;6.758;2023-12-22T00:48:19;7.77;;;1.30;;
74900;SDS011;63461;51.416;6.758;2023-12-22T00:50:45;12.33;;;1.53;;
74900;SDS011;63461;51.416;6.758;2023-12-22T00:53:11;10.40;;;1.30;;
74900;SDS011;63461;51.416;6.758;2023-12-22T00:55:37;7.37;;;1.47;;
74900;SDS011;63461;51.416;6.758;2023-12-22T00:58:03;6.97;;;1.37;;
74900;SDS011;63461;51.416;6.758;2023-12-22T01:00:28;11.57;;;2.00;;
74900;SDS011;63461;51.416;6.758;2023-12-22T01:02:54;11.57;;;1.67;;
74900;SDS011;63461;51.416;6.758;2023-12-22T01:05:20;13.83;;;1.50;;
74900;SDS011;63461;51.416;6.758;2023-12-22T01:07:46;12.47;;;1.50;;
74900;SDS011;63461;51.416;6.758;2023-12-22T01:10:11;17.23;;;2.23;;
74900;SDS011;63461;51.416;6.758;2023-12-22T01:12:37;8.33;;;1.67;;
74900;SDS011;63461;51.416;6.758;2023-12-22T01:15:03;9.83;;;1.10;;
74900;SDS011;63461;51.416;6.758;2023-12-22T01:17:29;11.87;;;1.40;;
74900;SDS011;63461;51.416;6.758;2023-12-22T01:19:55;11.17;;;1.53;;
74900;SDS011;63461;51.416;6.758;2023-12-22T01:22:21;7.50;;;1.53;;
74900;SDS011;63461;51.416;6.758;2023-12-22T01:24:48;3.97;;;0.60;;
74900;SDS011;63461;51.416;6.758;2023-12-22T01:27:14;8.63;;;1.57;;
74900;SDS011;63461;51.416;6.758;2023-12-22T01:29:40;10.73;;;1.57;;
74900;SDS011;63461;51.416;6.758;2023-12-22T01:32:06;10.43;;;1.53;;
74900;SDS011;63461;51.416;6.758;2023-12-22T01:34:32;14.10;;;1.30;;
74900;SDS011;63461;51.416;6.758;2023-12-22T01:36:58;5.97;;;1.20;;
74900;SDS011;63461;51.416;6.758;2023-12-22T01:39:23;7.50;;;1.30;;
74900;SDS011;63461;51.416;6.758;2023-12-22T01:41:49;8.07;;;1.60;;
74900;SDS011;63461;51.416;6.758;2023-12-22T01:44:15;6.00;;;1.00;;
74900;SDS011;63461;51.416;6.758;2023-12-22T01:46:41;7.47;;;1.13;;
74900;SDS011;63461;51.416;6.758;2023-12-22T01:49:07;7.60;;;1.70;;
74900;SDS011;63461;51.416;6.758;2023-12-22T01:51:33;7.27;;;1.30;;
74900;SDS011;63461;51.416;6.758;2023-12-22T02:02:22;3.60;;;1.20;;
74900;SDS011;63461;51.416;6.758;2023-12-22T02:04:48;8.63;;;1.10;;
74900;SDS011;63461;51.416;6.758;2023-12-22T02:07:14;10.00;;;1.10;;
74900;SDS011;63461;51.416;6.758;2023-12-22T02:09:40;5.70;;;0.80;;
74900;SDS011;63461;51.416;6.758;2023-12-22T02:12:06;4.83;;;0.87;;
74900;SDS011;63461;51.416;6.758;2023-12-22T02:14:32;5.20;;;0.80;;
74900;SDS011;63461;51.416;6.758;2023-12-22T02:17:42;4.00;;;0.90;;
74900;SDS011;63461;51.416;6.758;2023-12-22T02:19:51;3.63;;;0.77;;
74900;SDS011;63461;51.416;6.758;2023-12-22T02:22:21;6.00;;;0.90;;
74900;SDS011;63461;51.416;6.758;2023-12-22T02:24:47;5.47;;;1.10;;
74900;SDS011;63461;51.416;6.758;2023-12-22T02:29:43;5.23;;;0.70;;
74900;SDS011;63461;51.416;6.758;2023-12-22T02:32:25;2.07;;;0.70;;
74900;SDS011;63461;51.416;6.758;2023-12-22T02:34:55;4.40;;;0.93;;
74900;SDS011;63461;51.416;6.758;2023-12-22T02:37:22;8.53;;;1.40;;
74900;SDS011;63461;51.416;6.758;2023-12-22T02:39:50;5.30;;;0.80;;
74900;SDS011;63461;51.416;6.758;2023-12-22T02:42:18;8.93;;;1.50;;
74900;SDS011;63461;51.416;6.758;2023-12-22T02:44:45;5.70;;;1.10;;
74900;SDS011;63461;51.416;6.758;2023-12-22T02:47:11;6.77;;;1.00;;
74900;SDS011;63461;51.416;6.758;2023-12-22T02:49:37;4.27;;;1.10;;
74900;SDS011;63461;51.416;6.758;2023-12-22T02:52:03;6.87;;;1.53;;
74900;SDS011;63461;51.416;6.758;2023-12-22T02:54:29;10.80;;;1.15;;
74900;SDS011;63461;51.416;6.758;2023-12-22T02:56:56;1.77;;;0.53;;
74900;SDS011;63461;51.416;6.758;2023-12-22T02:59:24;5.27;;;1.33;;
74900;SDS011;63461;51.416;6.758;2023-12-22T03:01:51;8.37;;;1.23;;
74900;SDS011;63461;51.416;6.758;2023-12-22T03:04:16;11.93;;;1.10;;
74900;SDS011;63461;51.416;6.758;2023-12-22T03:06:43;6.63;;;1.03;;
74900;SDS011;63461;51.416;6.758;2023-12-22T03:09:08;7.20;;;1.87;;
74900;SDS011;63461;51.416;6.758;2023-12-22T03:11:35;7.10;;;1.10;;
74900;SDS011;63461;51.416;6.758;2023-12-22T03:14:00;6.83;;;1.40;;
74900;SDS011;63461;51.416;6.758;2023-12-22T03:16:26;3.20;;;0.87;;
74900;SDS011;63461;51.416;6.758;2023-12-22T03:18:52;7.10;;;1.30;;
74900;SDS011;63461;51.416;6.758;2023-12-22T03:21:18;11.40;;;1.07;;
74900;SDS011;63461;51.416;6.758;2023-12-22T03:23:45;5.73;;;1.27;;
74900;SDS011;63461;51.416;6.758;2023-12-22T03:26:11;7.37;;;1.33;;
74900;SDS011;63461;51.416;6.758;2023-12-22T03:28:36;8.87;;;1.33;;
74900;SDS011;63461;51.416;6.758;2023-12-22T03:31:03;7.03;;;1.30;;
74900;SDS011;63461;51.416;6.758;2023-12-22T03:33:29;10.03;;;1.17;;
74900;SDS011;63461;51.416;6.758;2023-12-22T03:35:55;7.43;;;1.43;;
74900;SDS011;63461;51.416;6.758;2023-12-22T03:38:21;8.73;;;1.20;;
74900;SDS011;63461;51.416;6.758;2023-12-22T03:40:46;10.60;;;1.60;;
74900;SDS011;63461;51.416;6.758;2023-12-22T03:43:12;11.23;;;1.50;;
74900;SDS011;63461;51.416;6.758;2023-12-22T03:45:38;7.33;;;1.13;;
74900;SDS011;63461;51.416;6.758;2023-12-22T03:48:04;6.27;;;1.50;;
74900;SDS011;63461;51.416;6.758;2023-12-22T03:50:30;5.47;;;1.20;;
74900;SDS011;63461;51.416;6.758;2023-12-22T03:52:56;7.70;;;1.07;;
74900;SDS011;63461;51.416;6.758;2023-12-22T03:55:21;8.77;;;1.40;;
74900;SDS011;63461;51.416;6.758;2023-12-22T03:57:47;8.80;;;1.27;;
74900;SDS011;63461;51.416;6.758;2023-12-22T04:00:13;8.60;;;1.40;;
74900;SDS011;63461;51.416;6.758;2023-12-22T04:02:41;6.53;;;1.13;;
74900;SDS011;63461;51.416;6.758;2023-12-22T04:05:07;9.57;;;1.30;;
74900;SDS011;63461;51.416;6.758;2023-12-22T04:07:33;7.60;;;1.40;;
74900;SDS011;63461;51.416;6.758;2023-12-22T04:10:00;11.90;;;2.63;;
74900;SDS011;63461;51.416;6.758;2023-12-22T04:12:26;7.33;;;1.60;;
74900;SDS011;63461;51.416;6.758;2023-12-22T04:14:52;12.17;;;1.93;;
74900;SDS011;63461;51.416;6.758;2023-12-22T04:17:19;15.63;;;2.00;;
74900;SDS011;63461;51.416;6.758;2023-12-22T04:19:45;8.70;;;1.20;;
74900;SDS011;63461;51.416;6.758;2023-12-22T04:22:10;12.43;;;2.20;;
74900;SDS011;63461;51.416;6.758;2023-12-22T04:24:36;6.40;;;1.23;;
74900;SDS011;63461;51.416;6.758;2023-12-22T04:27:02;6.50;;;1.07;;
74900;SDS011;63461;51.416;6.758;2023-12-22T04:29:28;14.50;;;2.03;;
74900;SDS011;63461;51.416;6.758;2023-12-22T04:31:54;8.93;;;1.90;;
74900;SDS011;63461;51.416;6.758;2023-12-22T04:34:19;13.47;;;2.07;;
74900;SDS011;63461;51.416;6.758;2023-12-22T04:36:45;12.60;;;2.00;;
74900;SDS011;63461;51.416;6.758;2023-12-22T04:39:12;10.23;;;1.80;;
74900;SDS011;63461;51.416;6.758;2023-12-22T04:41:38;15.70;;;2.70;;
74900;SDS011;63461;51.416;6.758;2023-12-22T04:44:04;11.53;;;1.80;;
74900;SDS011;63461;51.416;6.758;2023-12-22T04:46:29;16.10;;;2.50;;
74900;SDS011;63461;51.416;6.758;2023-12-22T04:48:55;18.77;;;2.50;;
74900;SDS011;63461;51.416;6.758;2023-12-22T04:51:21;16.10;;;2.00;;
74900;SDS011;63461;51.416;6.758;2023-12-22T04:53:48;17.00;;;2.47;;
74900;SDS011;63461;51.416;6.758;2023-12-22T04:56:14;13.07;;;2.17;;
74900;SDS011;63461;51.416;6.758;2023-12-22T04:58:40;11.67;;;2.37;;
74900;SDS011;63461;51.416;6.758;2023-12-22T05:01:06;16.23;;;2.40;;
74900;SDS011;63461;51.416;6.758;2023-12-22T05:03:32;16.63;;;2.50;;
74900;SDS011;63461;51.416;6.758;2023-12-22T05:05:58;18.23;;;2.20;;
74900;SDS011;63461;51.416;6.758;2023-12-22T05:08:23;13.83;;;2.00;;
74900;SDS011;63461;51.416;6.758;2023-12-22T05:10:49;16.40;;;2.40;;
74900;SDS011;63461;51.416;6.758;2023-12-22T05:13:15;7.90;;;1.70;;
74900;SDS011;63461;51.416;6.758;2023-12-22T05:15:41;6.93;;;1.40;;
74900;SDS011;63461;51.416;6.758;2023-12-22T05:18:06;9.37;;;1.50;;
74900;SDS011;63461;51.416;6.758;2023-12-22T05:20:32;6.93;;;1.33;;
74900;SDS011;63461;51.416;6.758;2023-12-22T05:22:58;6.83;;;1.10;;
74900;SDS011;63461;51.416;6.758;2023-12-22T05:25:24;5.40;;;1.23;;
74900;SDS011;63461;51.416;6.758;2023-12-22T05:27:50;5.00;;;1.43;;
74900;SDS011;63461;51.416;6.758;2023-12-22T05:30:17;7.87;;;1.40;;
74900;SDS011;63461;51.416;6.758;2023-12-22T05:32:43;7.50;;;0.67;;
74900;SDS011;63461;51.416;6.758;2023-12-22T05:35:09;3.73;;;0.87;;
74900;SDS011;63461;51.416;6.758;2023-12-22T05:37:35;4.87;;;1.00;;
74900;SDS011;63461;51.416;6.758;2023-12-22T05:40:01;8.57;;;1.30;;
74900;SDS011;63461;51.416;6.758;2023-12-22T05:42:27;8.93;;;1.57;;
74900;SDS011;63461;51.416;6.758;2023-12-22T05:44:53;7.10;;;1.50;;
74900;SDS011;63461;51.416;6.758;2023-12-22T05:47:19;7.23;;;1.47;;
74900;SDS011;63461;51.416;6.758;2023-12-22T05:49:45;6.17;;;1.07;;
74900;SDS011;63461;51.416;6.758;2023-12-22T05:52:11;7.70;;;1.60;;
74900;SDS011;63461;51.416;6.758;2023-12-22T05:54:37;8.63;;;1.70;;
74900;SDS011;63461;51.416;6.758;2023-12-22T05:57:03;12.27;;;2.20;;
74900;SDS011;63461;51.416;6.758;2023-12-22T05:59:31;5.40;;;1.00;;
74900;SDS011;63461;51.416;6.758;2023-12-22T06:01:58;10.37;;;1.60;;
74900;SDS011;63461;51.416;6.758;2023-12-22T06:04:24;7.77;;;1.40;;
74900;SDS011;63461;51.416;6.758;2023-12-22T06:06:50;9.93;;;1.50;;
74900;SDS011;63461;51.416;6.758;2023-12-22T06:09:16;10.50;;;1.40;;
74900;SDS011;63461;51.416;6.758;2023-12-22T06:11:44;9.70;;;1.33;;
74900;SDS011;63461;51.416;6.758;2023-12-22T06:14:10;11.77;;;1.43;;
74900;SDS011;63461;51.416;6.758;2023-12-22T06:16:36;8.00;;;1.50;;
74900;SDS011;63461;51.416;6.758;2023-12-22T06:19:02;10.27;;;2.00;;
74900;SDS011;63461;51.416;6.758;2023-12-22T06:21:28;6.77;;;1.63;;
74900;SDS011;63461;51.416;6.758;2023-12-22T06:23:54;14.43;;;2.13;;
74900;SDS011;63461;51.416;6.758;2023-12-22T06:26:20;12.00;;;1.73;;
74900;SDS011;63461;51.416;6.758;2023-12-22T06:28:46;11.73;;;1.70;;
74900;SDS011;63461;51.416;6.758;2023-12-22T06:31:18;8.37;;;1.80;;
74900;SDS011;63461;51.416;6.758;2023-12-22T06:33:45;13.50;;;1.70;;
74900;SDS011;63461;51.416;6.758;2023-12-22T06:36:22;17.53;;;2.50;;
74900;SDS011;63461;51.416;6.758;2023-12-22T06:38:52;12.20;;;1.90;;
74900;SDS011;63461;51.416;6.758;2023-12-22T06:41:28;9.50;;;1.60;;
74900;SDS011;63461;51.416;6.758;2023-12-22T06:43:55;15.10;;;2.63;;
74900;SDS011;63461;51.416;6.758;2023-12-22T06:46:22;18.20;;;2.43;;
74900;SDS011;63461;51.416;6.758;2023-12-22T06:48:52;13.90;;;2.40;;
74900;SDS011;63461;51.416;6.758;2023-12-22T06:53:49;17.20;;;2.07;;
74900;SDS011;63461;51.416;6.758;2023-12-22T06:56:19;19.33;;;2.33;;
74900;SDS011;63461;51.416;6.758;2023-12-22T06:58:47;6.53;;;1.40;;
74900;SDS011;63461;51.416;6.758;2023-12-22T07:01:17;13.73;;;3.03;;
74900;SDS011;63461;51.416;6.758;2023-12-22T07:03:48;20.80;;;2.30;;
74900;SDS011;63461;51.416;6.758;2023-12-22T07:06:15;15.43;;;2.00;;
74900;SDS011;63461;51.416;6.758;2023-12-22T07:08:42;15.83;;;2.10;;
74900;SDS011;63461;51.416;6.758;2023-12-22T07:11:08;11.97;;;2.30;;
74900;SDS011;63461;51.416;6.758;2023-12-22T07:13:35;12.43;;;2.00;;
74900;SDS011;63461;51.416;6.758;2023-12-22T07:16:01;17.23;;;1.90;;
74900;SDS011;63461;51.416;6.758;2023-12-22T07:18:27;13.10;;;1.70;;
74900;SDS011;63461;51.416;6.758;2023-12-22T07:20:57;12.53;;;2.37;;
74900;SDS011;63461;51.416;6.758;2023-12-22T07:23:23;10.03;;;1.93;;
74900;SDS011;63461;51.416;6.758;2023-12-22T07:25:49;9.13;;;1.77;;
74900;SDS011;63461;51.416;6.758;2023-12-22T07:28:15;13.00;;;1.50;;
74900;SDS011;63461;51.416;6.758;2023-12-22T07:30:41;11.17;;;2.30;;
74900;SDS011;63461;51.416;6.758;2023-12-22T07:33:07;12.23;;;1.90;;
74900;SDS011;63461;51.416;6.758;2023-12-22T07:35:33;10.57;;;1.53;;
74900;SDS011;63461;51.416;6.758;2023-12-22T07:37:59;11.20;;;1.97;;
74900;SDS011;63461;51.416;6.758;2023-12-22T07:40:28;9.77;;;1.30;;
74900;SDS011;63461;51.416;6.758;2023-12-22T07:42:56;10.10;;;1.97;;
74900;SDS011;63461;51.416;6.758;2023-12-22T07:45:22;14.17;;;2.13;;
74900;SDS011;63461;51.416;6.758;2023-12-22T07:47:47;4.37;;;1.10;;
74900;SDS011;63461;51.416;6.758;2023-12-22T07:50:14;13.43;;;2.20;;
74900;SDS011;63461;51.416;6.758;2023-12-22T07:52:39;15.37;;;1.97;;
74900;SDS011;63461;51.416;6.758;2023-12-22T07:55:06;14.83;;;2.70;;
74900;SDS011;63461;51.416;6.758;2023-12-22T07:57:36;18.40;;;2.77;;
74900;SDS011;63461;51.416;6.758;2023-12-22T08:00:02;16.63;;;2.93;;
74900;SDS011;63461;51.416;6.758;2023-12-22T08:02:37;10.47;;;1.90;;
74900;SDS011;63461;51.416;6.758;2023-12-22T08:05:03;22.33;;;2.93;;
74900;SDS011;63461;51.416;6.758;2023-12-22T08:07:29;26.50;;;3.23;;
74900;SDS011;63461;51.416;6.758;2023-12-22T08:09:56;9.03;;;2.20;;
74900;SDS011;63461;51.416;6.758;2023-12-22T08:12:22;8.03;;;1.70;;
74900;SDS011;63461;51.416;6.758;2023-12-22T08:14:48;15.03;;;2.83;;
74900;SDS011;63461;51.416;6.758;2023-12-22T08:17:14;24.97;;;3.30;;
74900;SDS011;63461;51.416;6.758;2023-12-22T08:19:40;19.20;;;3.70;;
74900;SDS011;63461;51.416;6.758;2023-12-22T08:22:09;20.43;;;2.93;;
74900;SDS011;63461;51.416;6.758;2023-12-22T08:24:36;22.40;;;2.93;;
74900;SDS011;63461;51.416;6.758;2023-12-22T08:27:02;31.03;;;3.80;;
74900;SDS011;63461;51.416;6.758;2023-12-22T08:29:27;18.03;;;3.10;;
74900;SDS011;63461;51.416;6.758;2023-12-22T08:31:53;30.27;;;4.00;;
74900;SDS011;63461;51.416;6.758;2023-12-22T08:34:19;24.80;;;3.80;;
74900;SDS011;63461;51.416;6.758;2023-12-22T08:36:45;21.63;;;3.60;;
74900;SDS011;63461;51.416;6.758;2023-12-22T08:39:11;24.40;;;4.43;;
74900;SDS011;63461;51.416;6.758;2023-12-22T08:41:37;15.87;;;2.50;;
74900;SDS011;63461;51.416;6.758;2023-12-22T08:44:09;25.37;;;3.80;;
74900;SDS011;63461;51.416;6.758;2023-12-22T08:46:35;19.17;;;3.73;;
74900;SDS011;63461;51.416;6.758;2023-12-22T08:49:02;26.03;;;3.87;;
74900;SDS011;63461;51.416;6.758;2023-12-22T08:51:28;32.13;;;5.37;;
74900;SDS011;63461;51.416;6.758;2023-12-22T08:53:54;34.43;;;4.03;;
74900;SDS011;63461;51.416;6.758;2023-12-22T08:56:21;25.70;;;4.00;;
74900;SDS011;63461;51.416;6.758;2023-12-22T08:58:47;16.27;;;3.23;;
74900;SDS011;63461;51.416;6.758;2023-12-22T09:01:17;29.67;;;4.33;;
74900;SDS011;63461;51.416;6.758;2023-12-22T09:03:43;31.00;;;3.93;;
74900;SDS011;63461;51.416;6.758;2023-12-22T09:06:19;31.40;;;4.03;;
74900;SDS011;63461;51.416;6.758;2023-12-22T09:08:47;30.27;;;4.33;;
74900;SDS011;63461;51.416;6.758;2023-12-22T09:11:13;32.47;;;4.57;;
74900;SDS011;63461;51.416;6.758;2023-12-22T09:13:41;23.53;;;3.97;;
74900;SDS011;63461;51.416;6.758;2023-12-22T09:16:08;31.03;;;4.70;;
74900;SDS011;63461;51.416;6.758;2023-12-22T09:18:35;28.20;;;4.40;;
74900;SDS011;63461;51.416;6.758;2023-12-22T09:21:01;40.70;;;5.50;;
74900;SDS011;63461;51.416;6.758;2023-12-22T09:23:28;26.60;;;4.60;;
74900;SDS011;63461;51.416;6.758;2023-12-22T09:25:54;28.63;;;4.57;;
74900;SDS011;63461;51.416;6.758;2023-12-22T09:28:20;33.47;;;4.40;;
74900;SDS011;63461;51.416;6.758;2023-12-22T09:30:46;21.23;;;3.50;;
74900;SDS011;63461;51.416;6.758;2023-12-22T09:33:12;31.53;;;3.97;;
74900;SDS011;63461;51.416;6.758;2023-12-22T09:35:38;27.27;;;3.90;;
74900;SDS011;63461;51.416;6.758;2023-12-22T09:38:07;32.53;;;4.10;;
74900;SDS011;63461;51.416;6.758;2023-12-22T09:40:40;31.33;;;3.53;;
74900;SDS011;63461;51.416;6.758;2023-12-22T09:43:07;14.73;;;2.13;;
74900;SDS011;63461;51.416;6.758;2023-12-22T09:45:34;20.83;;;3.73;;
74900;SDS011;63461;51.416;6.758;2023-12-22T09:48:01;27.47;;;4.27;;
74900;SDS011;63461;51.416;6.758;2023-12-22T09:50:29;21.97;;;3.80;;
74900;SDS011;63461;51.416;6.758;2023-12-22T09:52:55;23.67;;;3.80;;
74900;SDS011;63461;51.416;6.758;2023-12-22T09:55:22;13.00;;;1.63;;
74900;SDS011;63461;51.416;6.758;2023-12-22T09:57:51;11.00;;;1.70;;
74900;SDS011;63461;51.416;6.758;2023-12-22T10:00:18;15.70;;;2.07;;
74900;SDS011;63461;51.416;6.758;2023-12-22T10:02:44;17.10;;;3.00;;
74900;SDS011;63461;51.416;6.758;2023-12-22T10:05:11;17.53;;;2.07;;
74900;SDS011;63461;51.416;6.758;2023-12-22T10:07:41;13.10;;;2.80;;
74900;SDS011;63461;51.416;6.758;2023-12-22T10:10:11;14.93;;;2.20;;
74900;SDS011;63461;51.416;6.758;2023-12-22T10:12:40;13.63;;;2.27;;
74900;SDS011;63461;51.416;6.758;2023-12-22T10:15:07;12.07;;;2.07;;
74900;SDS011;63461;51.416;6.758;2023-12-22T10:17:36;12.23;;;2.63;;
74900;SDS011;63461;51.416;6.758;2023-12-22T10:20:03;13.67;;;2.00;;
74900;SDS011;63461;51.416;6.758;2023-12-22T10:22:29;7.83;;;1.60;;
74900;SDS011;63461;51.416;6.758;2023-12-22T10:24:55;5.37;;;1.37;;
74900;SDS011;63461;51.416;6.758;2023-12-22T10:27:21;9.83;;;1.83;;
74900;SDS011;63461;51.416;6.758;2023-12-22T10:29:54;12.00;;;2.40;;
74900;SDS011;63461;51.416;6.758;2023-12-22T10:32:21;13.00;;;1.87;;
74900;SDS011;63461;51.416;6.758;2023-12-22T10:34:48;10.17;;;1.83;;
74900;SDS011;63461;51.416;6.758;2023-12-22T10:37:16;8.57;;;1.43;;
74900;SDS011;63461;51.416;6.758;2023-12-22T10:39:42;12.10;;;1.83;;
74900;SDS011;63461;51.416;6.758;2023-12-22T10:42:08;12.30;;;2.07;;
74900;SDS011;63461;51.416;6.758;2023-12-22T10:44:35;10.10;;;1.80;;
74900;SDS011;63461;51.416;6.758;2023-12-22T10:47:05;5.60;;;1.20;;
74900;SDS011;63461;51.416;6.758;2023-12-22T10:49:31;3.87;;;1.23;;
74900;SDS011;63461;51.416;6.758;2023-12-22T10:51:59;6.50;;;1.47;;
74900;SDS011;63461;51.416;6.758;2023-12-22T10:54:25;8.43;;;2.30;;
74900;SDS011;63461;51.416;6.758;2023-12-22T10:56:51;7.97;;;1.63;;
74900;SDS011;63461;51.416;6.758;2023-12-22T10:59:22;2.97;;;1.43;;
74900;SDS011;63461;51.416;6.758;2023-12-22T11:01:48;14.23;;;2.30;;
74900;SDS011;63461;51.416;6.758;2023-12-22T11:04:17;13.47;;;1.73;;
74900;SDS011;63461;51.416;6.758;2023-12-22T11:06:45;11.47;;;1.77;;
74900;SDS011;63461;51.416;6.758;2023-12-22T11:09:14;8.03;;;1.63;;
74900;SDS011;63461;51.416;6.758;2023-12-22T11:11:42;7.73;;;1.83;;
74900;SDS011;63461;51.416;6.758;2023-12-22T11:14:08;10.60;;;1.90;;
74900;SDS011;63461;51.416;6.758;2023-12-22T11:16:36;7.67;;;1.10;;
74900;SDS011;63461;51.416;6.758;2023-12-22T11:19:03;8.43;;;1.50;;
74900;SDS011;63461;51.416;6.758;2023-12-22T11:21:29;8.23;;;1.63;;
74900;SDS011;63461;51.416;6.758;2023-12-22T11:23:56;9.50;;;1.57;;
74900;SDS011;63461;51.416;6.758;2023-12-22T11:26:25;4.77;;;1.27;;
74900;SDS011;63461;51.416;6.758;2023-12-22T11:28:51;4.67;;;1.03;;
74900;SDS011;63461;51.416;6.758;2023-12-22T11:31:18;6.13;;;1.37;;
74900;SDS011;63461;51.416;6.758;2023-12-22T11:33:44;6.70;;;1.40;;
74900;SDS011;63461;51.416;6.758;2023-12-22T11:36:14;8.67;;;1.43;;
74900;SDS011;63461;51.416;6.758;2023-12-22T11:38:41;4.77;;;1.53;;
74900;SDS011;63461;51.416;6.758;2023-12-22T11:41:09;3.80;;;1.30;;
74900;SDS011;63461;51.416;6.758;2023-12-22T11:43:39;11.53;;;1.87;;
74900;SDS011;63461;51.416;6.758;2023-12-22T11:46:06;5.33;;;1.30;;
74900;SDS011;63461;51.416;6.758;2023-12-22T11:48:33;3.10;;;1.00;;
74900;SDS011;63461;51.416;6.758;2023-12-22T11:50:59;8.70;;;1.27;;
74900;SDS011;63461;51.416;6.758;2023-12-22T11:53:29;4.83;;;1.13;;
74900;SDS011;63461;51.416;6.758;2023-12-22T11:55:58;4.53;;;1.20;;
74900;SDS011;63461;51.416;6.758;2023-12-22T11:58:40;4.67;;;0.80;;
74900;SDS011;63461;51.416;6.758;2023-12-22T12:01:10;6.10;;;1.17;;
74900;SDS011;63461;51.416;6.758;2023-12-22T12:03:40;2.87;;;0.93;;
74900;SDS011;63461;51.416;6.758;2023-12-22T12:06:38;6.47;;;1.03;;
74900;SDS011;63461;51.416;6.758;2023-12-22T12:09:04;3.47;;;1.10;;
74900;SDS011;63461;51.416;6.758;2023-12-22T12:14:28;3.67;;;1.10;;
74900;SDS011;63461;51.416;6.758;2023-12-22T12:17:03;3.63;;;1.03;;
74900;SDS011;63461;51.416;6.758;2023-12-22T12:19:39;8.33;;;1.37;;
74900;SDS011;63461;51.416;6.758;2023-12-22T12:22:07;5.23;;;1.00;;
74900;SDS011;63461;51.416;6.758;2023-12-22T12:24:33;2.03;;;1.00;;
74900;SDS011;63461;51.416;6.758;2023-12-22T12:26:59;2.83;;;1.23;;
74900;SDS011;63461;51.416;6.758;2023-12-22T12:29:25;4.30;;;1.67;;
74900;SDS011;63461;51.416;6.758;2023-12-22T12:31:51;8.40;;;1.70;;
74900;SDS011;63461;51.416;6.758;2023-12-22T12:34:17;2.07;;;0.80;;
74900;SDS011;63461;51.416;6.758;2023-12-22T12:36:46;6.97;;;0.90;;
74900;SDS011;63461;51.416;6.758;2023-12-22T12:39:14;2.77;;;0.80;;
74900;SDS011;63461;51.416;6.758;2023-12-22T12:41:41;4.37;;;1.00;;
74900;SDS011;63461;51.416;6.758;2023-12-22T12:44:09;8.53;;;1.43;;
74900;SDS011;63461;51.416;6.758;2023-12-22T12:46:36;3.83;;;1.37;;
74900;SDS011;63461;51.416;6.758;2023-12-22T12:49:06;1.73;;;0.80;;
74900;SDS011;63461;51.416;6.758;2023-12-22T12:51:38;3.50;;;1.00;;
74900;SDS011;63461;51.416;6.758;2023-12-22T12:54:06;5.73;;;1.30;;
74900;SDS011;63461;51.416;6.758;2023-12-22T12:56:39;5.70;;;1.53;;
74900;SDS011;63461;51.416;6.758;2023-12-22T12:59:15;5.60;;;1.43;;
74900;SDS011;63461;51.416;6.758;2023-12-22T13:01:43;6.53;;;1.90;;
74900;SDS011;63461;51.416;6.758;2023-12-22T13:04:10;7.87;;;1.53;;
74900;SDS011;63461;51.416;6.758;2023-12-22T13:06:47;6.00;;;1.47;;
74900;SDS011;63461;51.416;6.758;2023-12-22T13:09:14;9.03;;;1.70;;
74900;SDS011;63461;51.416;6.758;2023-12-22T13:11:41;9.40;;;1.90;;
74900;SDS011;63461;51.416;6.758;2023-12-22T13:14:08;6.67;;;1.40;;
74900;SDS011;63461;51.416;6.758;2023-12-22T13:16:35;6.07;;;1.20;;
74900;SDS011;63461;51.416;6.758;2023-12-22T13:19:01;4.77;;;1.30;;
74900;SDS011;63461;51.416;6.758;2023-12-22T13:21:27;4.73;;;1.00;;
74900;SDS011;63461;51.416;6.758;2023-12-22T13:24:14;7.70;;;1.27;;
74900;SDS011;63461;51.416;6.758;2023-12-22T13:26:44;4.00;;;1.10;;
74900;SDS011;63461;51.416;6.758;2023-12-22T13:29:10;5.67;;;1.20;;
74900;SDS011;63461;51.416;6.758;2023-12-22T13:31:41;4.27;;;1.47;;
74900;SDS011;63461;51.416;6.758;2023-12-22T13:34:11;7.50;;;1.50;;
74900;SDS011;63461;51.416;6.758;2023-12-22T13:36:38;6.53;;;1.67;;
74900;SDS011;63461;51.416;6.758;2023-12-22T13:39:09;7.30;;;1.67;;
74900;SDS011;63461;51.416;6.758;2023-12-22T13:41:39;8.53;;;1.93;;
74900;SDS011;63461;51.416;6.758;2023-12-22T13:44:07;6.03;;;1.60;;
74900;SDS011;63461;51.416;6.758;2023-12-22T13:46:33;2.13;;;1.10;;
74900;SDS011;63461;51.416;6.758;2023-12-22T13:49:01;7.30;;;1.80;;
74900;SDS011;63461;51.416;6.758;2023-12-22T13:51:38;8.40;;;1.73;;
74900;SDS011;63461;51.416;6.758;2023-12-22T13:54:05;8.60;;;1.70;;
74900;SDS011;63461;51.416;6.758;2023-12-22T13:56:34;9.07;;;1.83;;
74900;SDS011;63461;51.416;6.758;2023-12-22T13:59:05;6.97;;;1.67;;
74900;SDS011;63461;51.416;6.758;2023-12-22T14:01:31;4.77;;;1.67;;
74900;SDS011;63461;51.416;6.758;2023-12-22T14:03:59;7.93;;;1.70;;
74900;SDS011;63461;51.416;6.758;2023-12-22T14:06:25;10.20;;;1.97;;
74900;SDS011;63461;51.416;6.758;2023-12-22T14:08:52;10.30;;;2.00;;
74900;SDS011;63461;51.416;6.758;2023-12-22T14:11:19;8.47;;;1.60;;
74900;SDS011;63461;51.416;6.758;2023-12-22T14:13:46;5.67;;;1.63;;
74900;SDS011;63461;51.416;6.758;2023-12-22T14:16:12;6.10;;;1.67;;
74900;SDS011;63461;51.416;6.758;2023-12-22T14:18:39;6.67;;;1.80;;
74900;SDS011;63461;51.416;6.758;2023-12-22T14:21:04;6.37;;;1.37;;
74900;SDS011;63461;51.416;6.758;2023-12-22T14:23:30;7.57;;;2.03;;
74900;SDS011;63461;51.416;6.758;2023-12-22T14:25:56;3.23;;;0.97;;
74900;SDS011;63461;51.416;6.758;2023-12-22T14:28:23;6.13;;;1.37;;
74900;SDS011;63461;51.416;6.758;2023-12-22T14:30:48;11.23;;;1.80;;
74900;SDS011;63461;51.416;6.758;2023-12-22T14:33:14;3.63;;;1.47;;
74900;SDS011;63461;51.416;6.758;2023-12-22T14:35:40;7.47;;;1.30;;
74900;SDS011;63461;51.416;6.758;2023-12-22T14:38:06;6.53;;;1.50;;
74900;SDS011;63461;51.416;6.758;2023-12-22T14:40:32;10.40;;;1.50;;
74900;SDS011;63461;51.416;6.758;2023-12-22T14:42:58;6.33;;;1.63;;
74900;SDS011;63461;51.416;6.758;2023-12-22T14:45:24;7.47;;;1.63;;
74900;SDS011;63461;51.416;6.758;2023-12-22T14:47:50;7.27;;;1.47;;
74900;SDS011;63461;51.416;6.758;2023-12-22T14:50:18;8.93;;;1.80;;
74900;SDS011;63461;51.416;6.758;2023-12-22T14:52:44;9.63;;;1.70;;
74900;SDS011;63461;51.416;6.758;2023-12-22T14:55:10;6.53;;;1.90;;
74900;SDS011;63461;51.416;6.758;2023-12-22T14:57:36;6.67;;;1.60;;
74900;SDS011;63461;51.416;6.758;2023-12-22T15:00:03;7.80;;;1.50;;